sensor_id;sensor_type;location;lat;lon;timestamp;temperature;humidity
47765;DHT22;33529;49.242;8.670;2022-11-10T00:02:24;11.10;99.90
47765;DHT22;33529;49.242;8.670;2022-11-10T00:05:11;11.10;99.90
47765;DHT22;33529;49.242;8.670;2022-11-10T00:07:57;11.10;99.90
47765;DHT22;33529;49.242;8.670;2022-11-10T00:10:45;11.10;99.90
47765;DHT22;33529;49.242;8.670;2022-11-10T00:13:46;11.10;99.90
47765;DHT22;33529;49.242;8.670;2022-11-10T00:16:51;11.10;99.90
47765;DHT22;33529;49.242;8.670;2022-11-10T00:19:45;11.10;99.90
47765;DHT22;33529;49.242;8.670;2022-11-10T00:22:32;11.10;99.90
47765;DHT22;33529;49.242;8.670;2022-11-10T00:25:17;11.00;99.90
47765;DHT22;33529;49.242;8.670;2022-11-10T00:28:03;10.90;99.90
47765;DHT22;33529;49.242;8.670;2022-11-10T00:30:48;10.90;99.90
47765;DHT22;33529;49.242;8.670;2022-11-10T00:33:39;10.80;99.90
47765;DHT22;33529;49.242;8.670;2022-11-10T00:36:25;10.80;99.90
47765;DHT22;33529;49.242;8.670;2022-11-10T00:39:11;10.80;99.90
47765;DHT22;33529;49.242;8.670;2022-11-10T00:41:57;10.70;99.90
47765;DHT22;33529;49.242;8.670;2022-11-10T00:44:42;10.70;99.90
47765;DHT22;33529;49.242;8.670;2022-11-10T00:47:27;10.70;99.90
47765;DHT22;33529;49.242;8.670;2022-11-10T00:50:13;10.70;99.90
47765;DHT22;33529;49.242;8.670;2022-11-10T00:52:59;10.60;99.90
47765;DHT22;33529;49.242;8.670;2022-11-10T00:55:44;10.50;99.90
47765;DHT22;33529;49.242;8.670;2022-11-10T00:58:30;10.40;99.90
47765;DHT22;33529;49.242;8.670;2022-11-10T01:01:17;10.30;99.90
47765;DHT22;33529;49.242;8.670;2022-11-10T01:04:03;10.30;99.90
47765;DHT22;33529;49.242;8.670;2022-11-10T01:06:48;10.20;99.90
47765;DHT22;33529;49.242;8.670;2022-11-10T01:09:35;10.20;99.90
47765;DHT22;33529;49.242;8.670;2022-11-10T01:12:21;10.10;99.90
47765;DHT22;33529;49.242;8.670;2022-11-10T01:15:07;10.10;99.90
47765;DHT22;33529;49.242;8.670;2022-11-10T01:17:54;10.00;99.90
47765;DHT22;33529;49.242;8.670;2022-11-10T01:20:39;9.90;99.90
47765;DHT22;33529;49.242;8.670;2022-11-10T01:23:25;9.90;99.90
47765;DHT22;33529;49.242;8.670;2022-11-10T01:26:10;9.80;99.90
47765;DHT22;33529;49.242;8.670;2022-11-10T01:28:56;9.70;99.90
47765;DHT22;33529;49.242;8.670;2022-11-10T01:31:41;9.70;99.90
47765;DHT22;33529;49.242;8.670;2022-11-10T01:34:27;9.60;99.90
47765;DHT22;33529;49.242;8.670;2022-11-10T01:37:13;9.60;99.90
47765;DHT22;33529;49.242;8.670;2022-11-10T01:39:58;9.60;99.90
47765;DHT22;33529;49.242;8.670;2022-11-10T01:42:52;9.50;99.90
47765;DHT22;33529;49.242;8.670;2022-11-10T01:46:04;9.60;99.90
47765;DHT22;33529;49.242;8.670;2022-11-10T01:48:56;9.50;99.90
47765;DHT22;33529;49.242;8.670;2022-11-10T01:51:56;9.50;99.90
47765;DHT22;33529;49.242;8.670;2022-11-10T01:54:45;9.40;99.90
47765;DHT22;33529;49.242;8.670;2022-11-10T01:57:31;9.40;99.90
47765;DHT22;33529;49.242;8.670;2022-11-10T02:00:18;9.40;99.90
47765;DHT22;33529;49.242;8.670;2022-11-10T02:03:15;9.20;99.90
47765;DHT22;33529;49.242;8.670;2022-11-10T02:06:02;9.20;99.90
47765;DHT22;33529;49.242;8.670;2022-11-10T02:08:51;9.20;99.90
47765;DHT22;33529;49.242;8.670;2022-11-10T02:11:39;9.10;99.90
47765;DHT22;33529;49.242;8.670;2022-11-10T02:14:25;9.00;99.90
47765;DHT22;33529;49.242;8.670;2022-11-10T02:17:11;9.00;99.90
47765;DHT22;33529;49.242;8.670;2022-11-10T02:20:03;9.00;99.90
47765;DHT22;33529;49.242;8.670;2022-11-10T02:22:49;8.90;99.90
47765;DHT22;33529;49.242;8.670;2022-11-10T02:25:35;8.90;99.90
47765;DHT22;33529;49.242;8.670;2022-11-10T02:28:22;8.90;99.90
47765;DHT22;33529;49.242;8.670;2022-11-10T02:31:07;8.90;99.90
47765;DHT22;33529;49.242;8.670;2022-11-10T02:33:53;8.90;99.90
47765;DHT22;33529;49.242;8.670;2022-11-10T02:36:38;8.80;99.90
47765;DHT22;33529;49.242;8.670;2022-11-10T02:39:24;8.80;99.90
47765;DHT22;33529;49.242;8.670;2022-11-10T02:42:09;8.80;99.90
47765;DHT22;33529;49.242;8.670;2022-11-10T02:44:56;8.80;99.90
47765;DHT22;33529;49.242;8.670;2022-11-10T02:47:41;8.80;99.90
47765;DHT22;33529;49.242;8.670;2022-11-10T02:50:27;8.70;99.90
47765;DHT22;33529;49.242;8.670;2022-11-10T02:53:12;8.60;99.90
47765;DHT22;33529;49.242;8.670;2022-11-10T02:55:57;8.60;99.90
47765;DHT22;33529;49.242;8.670;2022-11-10T02:58:42;8.60;99.90
47765;DHT22;33529;49.242;8.670;2022-11-10T03:01:28;8.60;99.90
47765;DHT22;33529;49.242;8.670;2022-11-10T03:04:13;8.50;99.90
47765;DHT22;33529;49.242;8.670;2022-11-10T03:06:59;8.50;99.90
47765;DHT22;33529;49.242;8.670;2022-11-10T03:09:44;8.50;99.90
47765;DHT22;33529;49.242;8.670;2022-11-10T03:12:30;8.50;99.90
47765;DHT22;33529;49.242;8.670;2022-11-10T03:15:15;8.50;99.90
47765;DHT22;33529;49.242;8.670;2022-11-10T03:18:04;8.50;99.90
47765;DHT22;33529;49.242;8.670;2022-11-10T03:20:50;8.40;99.90
47765;DHT22;33529;49.242;8.670;2022-11-10T03:23:36;8.50;99.90
47765;DHT22;33529;49.242;8.670;2022-11-10T03:26:21;8.40;99.90
47765;DHT22;33529;49.242;8.670;2022-11-10T03:29:07;8.40;99.90
47765;DHT22;33529;49.242;8.670;2022-11-10T03:31:52;8.40;99.90
47765;DHT22;33529;49.242;8.670;2022-11-10T03:34:37;8.40;99.90
47765;DHT22;33529;49.242;8.670;2022-11-10T03:37:23;8.40;99.90
47765;DHT22;33529;49.242;8.670;2022-11-10T03:40:09;8.40;99.90
47765;DHT22;33529;49.242;8.670;2022-11-10T03:42:54;8.40;99.90
47765;DHT22;33529;49.242;8.670;2022-11-10T03:45:43;8.30;99.90
47765;DHT22;33529;49.242;8.670;2022-11-10T03:48:28;8.40;99.90
47765;DHT22;33529;49.242;8.670;2022-11-10T03:51:14;8.40;99.90
47765;DHT22;33529;49.242;8.670;2022-11-10T03:53:59;8.30;99.90
47765;DHT22;33529;49.242;8.670;2022-11-10T03:56:44;8.30;99.90
47765;DHT22;33529;49.242;8.670;2022-11-10T03:59:30;8.30;99.90
47765;DHT22;33529;49.242;8.670;2022-11-10T04:02:15;8.30;99.90
47765;DHT22;33529;49.242;8.670;2022-11-10T04:05:01;8.30;99.90
47765;DHT22;33529;49.242;8.670;2022-11-10T04:08:12;8.30;99.90
47765;DHT22;33529;49.242;8.670;2022-11-10T04:11:16;8.20;99.90
47765;DHT22;33529;49.242;8.670;2022-11-10T04:14:22;8.10;99.90
47765;DHT22;33529;49.242;8.670;2022-11-10T04:17:26;8.20;99.90
47765;DHT22;33529;49.242;8.670;2022-11-10T04:20:11;8.10;99.90
47765;DHT22;33529;49.242;8.670;2022-11-10T04:22:57;8.10;99.90
47765;DHT22;33529;49.242;8.670;2022-11-10T04:26:11;8.10;99.90
47765;DHT22;33529;49.242;8.670;2022-11-10T04:29:18;8.10;99.90
47765;DHT22;33529;49.242;8.670;2022-11-10T04:32:03;8.10;99.90
47765;DHT22;33529;49.242;8.670;2022-11-10T04:34:49;8.00;99.90
47765;DHT22;33529;49.242;8.670;2022-11-10T04:37:35;8.00;99.90
47765;DHT22;33529;49.242;8.670;2022-11-10T04:40:21;8.00;99.90
47765;DHT22;33529;49.242;8.670;2022-11-10T04:43:07;8.00;99.90
47765;DHT22;33529;49.242;8.670;2022-11-10T04:45:53;8.00;99.90
47765;DHT22;33529;49.242;8.670;2022-11-10T04:48:38;7.90;99.90
47765;DHT22;33529;49.242;8.670;2022-11-10T04:51:26;7.90;99.90
47765;DHT22;33529;49.242;8.670;2022-11-10T04:54:12;7.90;99.90
47765;DHT22;33529;49.242;8.670;2022-11-10T04:56:57;8.00;99.90
47765;DHT22;33529;49.242;8.670;2022-11-10T04:59:43;7.90;99.90
47765;DHT22;33529;49.242;8.670;2022-11-10T05:02:28;7.90;99.90
47765;DHT22;33529;49.242;8.670;2022-11-10T05:05:14;7.90;99.90
47765;DHT22;33529;49.242;8.670;2022-11-10T05:08:00;7.90;99.90
47765;DHT22;33529;49.242;8.670;2022-11-10T05:10:46;7.80;99.90
47765;DHT22;33529;49.242;8.670;2022-11-10T05:13:32;7.80;99.90
47765;DHT22;33529;49.242;8.670;2022-11-10T05:16:17;7.80;99.90
47765;DHT22;33529;49.242;8.670;2022-11-10T05:19:02;7.70;99.90
47765;DHT22;33529;49.242;8.670;2022-11-10T05:21:48;7.70;99.90
47765;DHT22;33529;49.242;8.670;2022-11-10T05:24:34;7.70;99.90
47765;DHT22;33529;49.242;8.670;2022-11-10T05:27:19;7.80;99.90
47765;DHT22;33529;49.242;8.670;2022-11-10T05:30:05;7.90;99.90
47765;DHT22;33529;49.242;8.670;2022-11-10T05:32:50;7.90;99.90
47765;DHT22;33529;49.242;8.670;2022-11-10T05:35:36;7.90;99.90
47765;DHT22;33529;49.242;8.670;2022-11-10T05:38:22;7.90;99.90
47765;DHT22;33529;49.242;8.670;2022-11-10T05:41:08;7.80;99.90
47765;DHT22;33529;49.242;8.670;2022-11-10T05:43:53;7.80;99.90
47765;DHT22;33529;49.242;8.670;2022-11-10T05:46:39;7.90;99.90
47765;DHT22;33529;49.242;8.670;2022-11-10T05:49:24;7.80;99.90
47765;DHT22;33529;49.242;8.670;2022-11-10T05:52:11;7.80;99.90
47765;DHT22;33529;49.242;8.670;2022-11-10T05:54:56;7.80;99.90
47765;DHT22;33529;49.242;8.670;2022-11-10T05:57:45;7.90;99.90
47765;DHT22;33529;49.242;8.670;2022-11-10T06:00:32;7.90;99.90
47765;DHT22;33529;49.242;8.670;2022-11-10T06:03:18;7.90;99.90
47765;DHT22;33529;49.242;8.670;2022-11-10T06:06:04;7.90;99.90
47765;DHT22;33529;49.242;8.670;2022-11-10T06:08:50;7.90;99.90
47765;DHT22;33529;49.242;8.670;2022-11-10T06:11:35;7.90;99.90
47765;DHT22;33529;49.242;8.670;2022-11-10T06:14:21;7.90;99.90
47765;DHT22;33529;49.242;8.670;2022-11-10T06:17:06;7.90;99.90
47765;DHT22;33529;49.242;8.670;2022-11-10T06:19:52;7.90;99.90
47765;DHT22;33529;49.242;8.670;2022-11-10T06:22:38;7.80;99.90
47765;DHT22;33529;49.242;8.670;2022-11-10T06:25:25;7.80;99.90
47765;DHT22;33529;49.242;8.670;2022-11-10T06:28:11;7.80;99.90
47765;DHT22;33529;49.242;8.670;2022-11-10T06:30:56;7.80;99.90
47765;DHT22;33529;49.242;8.670;2022-11-10T06:33:43;7.70;99.90
47765;DHT22;33529;49.242;8.670;2022-11-10T06:36:28;7.80;99.90
47765;DHT22;33529;49.242;8.670;2022-11-10T06:39:14;7.70;99.90
47765;DHT22;33529;49.242;8.670;2022-11-10T06:41:59;7.70;99.90
47765;DHT22;33529;49.242;8.670;2022-11-10T06:44:44;7.70;99.90
47765;DHT22;33529;49.242;8.670;2022-11-10T06:47:30;7.70;99.90
47765;DHT22;33529;49.242;8.670;2022-11-10T06:50:15;7.80;99.90
47765;DHT22;33529;49.242;8.670;2022-11-10T06:53:01;7.80;99.90
47765;DHT22;33529;49.242;8.670;2022-11-10T06:55:46;7.90;99.90
47765;DHT22;33529;49.242;8.670;2022-11-10T06:58:32;7.90;99.90
47765;DHT22;33529;49.242;8.670;2022-11-10T07:01:17;7.90;99.90
47765;DHT22;33529;49.242;8.670;2022-11-10T07:04:07;7.90;99.90
47765;DHT22;33529;49.242;8.670;2022-11-10T07:07:09;8.00;99.90
47765;DHT22;33529;49.242;8.670;2022-11-10T07:09:55;8.00;99.90
47765;DHT22;33529;49.242;8.670;2022-11-10T07:12:41;8.00;99.90
47765;DHT22;33529;49.242;8.670;2022-11-10T07:15:26;8.10;99.90
47765;DHT22;33529;49.242;8.670;2022-11-10T07:18:12;8.00;99.90
47765;DHT22;33529;49.242;8.670;2022-11-10T07:20:58;8.00;99.90
47765;DHT22;33529;49.242;8.670;2022-11-10T07:23:43;8.00;99.90
47765;DHT22;33529;49.242;8.670;2022-11-10T07:26:31;8.00;99.90
47765;DHT22;33529;49.242;8.670;2022-11-10T07:29:16;8.10;99.90
47765;DHT22;33529;49.242;8.670;2022-11-10T07:32:01;8.10;99.90
47765;DHT22;33529;49.242;8.670;2022-11-10T07:34:47;8.20;99.90
47765;DHT22;33529;49.242;8.670;2022-11-10T07:37:32;8.30;99.90
47765;DHT22;33529;49.242;8.670;2022-11-10T07:40:18;8.30;99.90
47765;DHT22;33529;49.242;8.670;2022-11-10T07:43:03;8.40;99.90
47765;DHT22;33529;49.242;8.670;2022-11-10T07:45:50;8.50;99.90
47765;DHT22;33529;49.242;8.670;2022-11-10T07:48:36;8.50;99.90
47765;DHT22;33529;49.242;8.670;2022-11-10T07:51:21;8.70;99.90
47765;DHT22;33529;49.242;8.670;2022-11-10T07:54:06;8.70;99.90
47765;DHT22;33529;49.242;8.670;2022-11-10T07:56:54;8.70;99.90
47765;DHT22;33529;49.242;8.670;2022-11-10T07:59:40;8.80;99.90
47765;DHT22;33529;49.242;8.670;2022-11-10T08:02:26;8.90;99.90
47765;DHT22;33529;49.242;8.670;2022-11-10T08:05:11;9.00;99.90
47765;DHT22;33529;49.242;8.670;2022-11-10T08:07:57;9.00;99.90
47765;DHT22;33529;49.242;8.670;2022-11-10T08:10:42;9.10;99.90
47765;DHT22;33529;49.242;8.670;2022-11-10T08:13:28;9.20;99.90
47765;DHT22;33529;49.242;8.670;2022-11-10T08:16:13;9.30;99.90
47765;DHT22;33529;49.242;8.670;2022-11-10T08:18:59;9.30;99.90
47765;DHT22;33529;49.242;8.670;2022-11-10T08:21:44;9.50;99.90
47765;DHT22;33529;49.242;8.670;2022-11-10T08:24:29;9.50;99.90
47765;DHT22;33529;49.242;8.670;2022-11-10T08:27:15;9.60;99.90
47765;DHT22;33529;49.242;8.670;2022-11-10T08:30:01;9.60;99.90
47765;DHT22;33529;49.242;8.670;2022-11-10T08:32:46;9.60;99.90
47765;DHT22;33529;49.242;8.670;2022-11-10T08:35:36;9.70;99.90
47765;DHT22;33529;49.242;8.670;2022-11-10T08:38:22;9.70;99.90
47765;DHT22;33529;49.242;8.670;2022-11-10T08:41:09;9.80;99.90
47765;DHT22;33529;49.242;8.670;2022-11-10T08:43:55;9.90;99.90
47765;DHT22;33529;49.242;8.670;2022-11-10T08:46:40;10.00;99.90
47765;DHT22;33529;49.242;8.670;2022-11-10T08:49:28;10.10;99.90
47765;DHT22;33529;49.242;8.670;2022-11-10T08:52:13;10.10;99.90
47765;DHT22;33529;49.242;8.670;2022-11-10T08:54:59;10.20;99.90
47765;DHT22;33529;49.242;8.670;2022-11-10T08:57:45;10.30;99.90
47765;DHT22;33529;49.242;8.670;2022-11-10T09:00:31;10.40;99.90
47765;DHT22;33529;49.242;8.670;2022-11-10T09:03:19;10.40;99.90
47765;DHT22;33529;49.242;8.670;2022-11-10T09:06:05;10.40;99.90
47765;DHT22;33529;49.242;8.670;2022-11-10T09:08:50;10.50;99.90
47765;DHT22;33529;49.242;8.670;2022-11-10T09:11:35;10.60;99.90
47765;DHT22;33529;49.242;8.670;2022-11-10T09:14:21;10.60;99.90
47765;DHT22;33529;49.242;8.670;2022-11-10T09:17:06;10.70;99.90
47765;DHT22;33529;49.242;8.670;2022-11-10T09:19:51;10.70;99.90
47765;DHT22;33529;49.242;8.670;2022-11-10T09:22:37;10.70;99.90
47765;DHT22;33529;49.242;8.670;2022-11-10T09:25:23;10.80;99.90
47765;DHT22;33529;49.242;8.670;2022-11-10T09:28:13;10.80;99.90
47765;DHT22;33529;49.242;8.670;2022-11-10T09:30:58;10.90;99.90
47765;DHT22;33529;49.242;8.670;2022-11-10T09:33:44;10.90;99.90
47765;DHT22;33529;49.242;8.670;2022-11-10T09:36:29;11.00;99.90
47765;DHT22;33529;49.242;8.670;2022-11-10T09:39:14;11.10;99.90
47765;DHT22;33529;49.242;8.670;2022-11-10T09:42:00;11.20;99.90
47765;DHT22;33529;49.242;8.670;2022-11-10T09:44:52;11.20;99.90
47765;DHT22;33529;49.242;8.670;2022-11-10T09:48:14;11.30;99.90
47765;DHT22;33529;49.242;8.670;2022-11-10T09:51:24;11.30;99.90
47765;DHT22;33529;49.242;8.670;2022-11-10T09:57:04;11.30;99.90
47765;DHT22;33529;49.242;8.670;2022-11-10T09:59:50;11.50;99.90
47765;DHT22;33529;49.242;8.670;2022-11-10T10:02:39;11.80;99.90
47765;DHT22;33529;49.242;8.670;2022-11-10T10:05:47;12.10;99.90
47765;DHT22;33529;49.242;8.670;2022-11-10T10:15:29;12.00;99.90
47765;DHT22;33529;49.242;8.670;2022-11-10T10:18:33;11.90;99.90
47765;DHT22;33529;49.242;8.670;2022-11-10T10:21:56;11.90;99.90
47765;DHT22;33529;49.242;8.670;2022-11-10T10:24:48;11.90;99.90
47765;DHT22;33529;49.242;8.670;2022-11-10T10:27:38;11.90;99.90
47765;DHT22;33529;49.242;8.670;2022-11-10T10:30:24;11.90;99.90
47765;DHT22;33529;49.242;8.670;2022-11-10T10:33:17;11.90;99.90
47765;DHT22;33529;49.242;8.670;2022-11-10T10:36:08;12.10;99.90
47765;DHT22;33529;49.242;8.670;2022-11-10T10:39:05;12.10;99.90
47765;DHT22;33529;49.242;8.670;2022-11-10T10:41:51;12.20;99.90
47765;DHT22;33529;49.242;8.670;2022-11-10T10:44:37;12.20;99.90
47765;DHT22;33529;49.242;8.670;2022-11-10T10:47:36;12.30;99.90
47765;DHT22;33529;49.242;8.670;2022-11-10T10:50:30;12.40;99.90
47765;DHT22;33529;49.242;8.670;2022-11-10T10:53:17;12.40;99.90
47765;DHT22;33529;49.242;8.670;2022-11-10T10:56:06;12.40;99.90
47765;DHT22;33529;49.242;8.670;2022-11-10T10:59:02;12.50;99.90
47765;DHT22;33529;49.242;8.670;2022-11-10T11:01:52;12.60;99.90
47765;DHT22;33529;49.242;8.670;2022-11-10T11:04:38;12.60;99.90
47765;DHT22;33529;49.242;8.670;2022-11-10T11:07:24;12.60;99.90
47765;DHT22;33529;49.242;8.670;2022-11-10T11:13:19;12.50;99.90
47765;DHT22;33529;49.242;8.670;2022-11-10T11:16:07;12.60;99.90
47765;DHT22;33529;49.242;8.670;2022-11-10T11:18:53;12.60;99.90
47765;DHT22;33529;49.242;8.670;2022-11-10T11:24:36;12.70;99.90
47765;DHT22;33529;49.242;8.670;2022-11-10T11:27:47;12.70;99.90
47765;DHT22;33529;49.242;8.670;2022-11-10T11:30:52;12.70;99.90
47765;DHT22;33529;49.242;8.670;2022-11-10T11:34:04;12.70;99.90
47765;DHT22;33529;49.242;8.670;2022-11-10T11:39:59;12.80;99.90
47765;DHT22;33529;49.242;8.670;2022-11-10T11:52:15;13.00;99.90
47765;DHT22;33529;49.242;8.670;2022-11-10T12:05:18;13.40;99.90
47765;DHT22;33529;49.242;8.670;2022-11-10T12:15:21;13.60;99.90
47765;DHT22;33529;49.242;8.670;2022-11-10T12:18:27;13.60;99.90
47765;DHT22;33529;49.242;8.670;2022-11-10T12:21:21;13.50;99.90
47765;DHT22;33529;49.242;8.670;2022-11-10T12:27:06;13.50;99.90
47765;DHT22;33529;49.242;8.670;2022-11-10T12:30:02;13.40;99.90
47765;DHT22;33529;49.242;8.670;2022-11-10T12:33:03;13.50;99.90
47765;DHT22;33529;49.242;8.670;2022-11-10T12:35:56;13.50;99.90
47765;DHT22;33529;49.242;8.670;2022-11-10T12:39:22;13.50;99.90
47765;DHT22;33529;49.242;8.670;2022-11-10T12:42:16;13.60;99.90
47765;DHT22;33529;49.242;8.670;2022-11-10T12:45:05;13.60;99.90
47765;DHT22;33529;49.242;8.670;2022-11-10T12:47:52;13.60;99.90
47765;DHT22;33529;49.242;8.670;2022-11-10T12:53:39;13.60;99.90
47765;DHT22;33529;49.242;8.670;2022-11-10T12:56:37;13.70;99.90
47765;DHT22;33529;49.242;8.670;2022-11-10T12:59:30;13.70;99.90
47765;DHT22;33529;49.242;8.670;2022-11-10T13:11:23;13.80;99.90
47765;DHT22;33529;49.242;8.670;2022-11-10T13:14:21;13.70;99.90
47765;DHT22;33529;49.242;8.670;2022-11-10T13:17:08;13.70;99.90
47765;DHT22;33529;49.242;8.670;2022-11-10T13:19:58;13.70;99.90
47765;DHT22;33529;49.242;8.670;2022-11-10T13:32:34;13.60;99.90
47765;DHT22;33529;49.242;8.670;2022-11-10T13:38:35;13.60;99.90
47765;DHT22;33529;49.242;8.670;2022-11-10T13:41:23;13.50;99.90
47765;DHT22;33529;49.242;8.670;2022-11-10T13:44:29;13.50;99.90
47765;DHT22;33529;49.242;8.670;2022-11-10T13:47:54;13.50;99.90
47765;DHT22;33529;49.242;8.670;2022-11-10T13:50:49;13.50;99.90
47765;DHT22;33529;49.242;8.670;2022-11-10T13:59:57;13.60;99.90
47765;DHT22;33529;49.242;8.670;2022-11-10T14:02:46;13.60;99.90
47765;DHT22;33529;49.242;8.670;2022-11-10T14:08:28;13.50;99.90
47765;DHT22;33529;49.242;8.670;2022-11-10T14:11:25;13.50;99.90
47765;DHT22;33529;49.242;8.670;2022-11-10T14:14:38;13.40;99.90
47765;DHT22;33529;49.242;8.670;2022-11-10T14:17:31;13.40;99.90
47765;DHT22;33529;49.242;8.670;2022-11-10T14:20:29;13.30;99.90
47765;DHT22;33529;49.242;8.670;2022-11-10T14:23:20;13.30;99.90
47765;DHT22;33529;49.242;8.670;2022-11-10T14:26:18;13.30;99.90
47765;DHT22;33529;49.242;8.670;2022-11-10T14:29:39;13.40;99.90
47765;DHT22;33529;49.242;8.670;2022-11-10T14:32:26;13.40;99.90
47765;DHT22;33529;49.242;8.670;2022-11-10T14:35:27;13.40;99.90
47765;DHT22;33529;49.242;8.670;2022-11-10T14:38:17;13.30;99.90
47765;DHT22;33529;49.242;8.670;2022-11-10T14:41:17;13.30;99.90
47765;DHT22;33529;49.242;8.670;2022-11-10T14:44:05;13.20;99.90
47765;DHT22;33529;49.242;8.670;2022-11-10T14:46:50;13.10;99.90
47765;DHT22;33529;49.242;8.670;2022-11-10T14:49:36;13.10;99.90
47765;DHT22;33529;49.242;8.670;2022-11-10T14:52:22;13.10;99.90
47765;DHT22;33529;49.242;8.670;2022-11-10T14:55:12;13.10;99.90
47765;DHT22;33529;49.242;8.670;2022-11-10T14:58:16;13.00;99.90
47765;DHT22;33529;49.242;8.670;2022-11-10T15:01:06;12.90;99.90
47765;DHT22;33529;49.242;8.670;2022-11-10T15:03:52;12.90;99.90
47765;DHT22;33529;49.242;8.670;2022-11-10T15:06:37;12.90;99.90
47765;DHT22;33529;49.242;8.670;2022-11-10T15:09:31;12.80;99.90
47765;DHT22;33529;49.242;8.670;2022-11-10T15:12:22;12.80;99.90
47765;DHT22;33529;49.242;8.670;2022-11-10T15:15:21;12.60;99.90
47765;DHT22;33529;49.242;8.670;2022-11-10T15:18:23;12.50;99.90
47765;DHT22;33529;49.242;8.670;2022-11-10T15:21:10;12.40;99.90
47765;DHT22;33529;49.242;8.670;2022-11-10T15:23:59;12.20;99.90
47765;DHT22;33529;49.242;8.670;2022-11-10T15:26:45;12.10;99.90
47765;DHT22;33529;49.242;8.670;2022-11-10T15:29:30;12.00;99.90
47765;DHT22;33529;49.242;8.670;2022-11-10T15:32:19;11.90;99.90
47765;DHT22;33529;49.242;8.670;2022-11-10T15:41:14;11.90;99.90
47765;DHT22;33529;49.242;8.670;2022-11-10T15:44:19;11.80;99.90
47765;DHT22;33529;49.242;8.670;2022-11-10T15:47:04;11.70;99.90
47765;DHT22;33529;49.242;8.670;2022-11-10T15:49:51;11.50;99.90
47765;DHT22;33529;49.242;8.670;2022-11-10T15:52:36;11.40;99.90
47765;DHT22;33529;49.242;8.670;2022-11-10T15:55:23;11.30;99.90
47765;DHT22;33529;49.242;8.670;2022-11-10T15:58:20;11.10;99.90
47765;DHT22;33529;49.242;8.670;2022-11-10T16:01:10;11.00;99.90
47765;DHT22;33529;49.242;8.670;2022-11-10T16:03:56;10.90;99.90
47765;DHT22;33529;49.242;8.670;2022-11-10T16:06:42;10.70;99.90
47765;DHT22;33529;49.242;8.670;2022-11-10T16:09:27;10.60;99.90
47765;DHT22;33529;49.242;8.670;2022-11-10T16:12:18;10.50;99.90
47765;DHT22;33529;49.242;8.670;2022-11-10T16:15:05;10.50;99.90
47765;DHT22;33529;49.242;8.670;2022-11-10T16:17:54;10.40;99.90
47765;DHT22;33529;49.242;8.670;2022-11-10T16:20:40;10.30;99.90
47765;DHT22;33529;49.242;8.670;2022-11-10T16:23:25;10.20;99.90
47765;DHT22;33529;49.242;8.670;2022-11-10T16:26:22;10.10;99.90
47765;DHT22;33529;49.242;8.670;2022-11-10T16:29:11;10.10;99.90
47765;DHT22;33529;49.242;8.670;2022-11-10T16:31:57;10.00;99.90
47765;DHT22;33529;49.242;8.670;2022-11-10T16:34:43;9.90;99.90
47765;DHT22;33529;49.242;8.670;2022-11-10T16:37:28;9.80;99.90
47765;DHT22;33529;49.242;8.670;2022-11-10T16:40:21;9.80;99.90
47765;DHT22;33529;49.242;8.670;2022-11-10T16:43:14;9.70;99.90
47765;DHT22;33529;49.242;8.670;2022-11-10T16:46:02;9.60;99.90
47765;DHT22;33529;49.242;8.670;2022-11-10T16:48:54;9.60;99.90
47765;DHT22;33529;49.242;8.670;2022-11-10T16:51:42;9.60;99.90
47765;DHT22;33529;49.242;8.670;2022-11-10T16:54:33;9.50;99.90
47765;DHT22;33529;49.242;8.670;2022-11-10T16:57:18;9.50;99.90
47765;DHT22;33529;49.242;8.670;2022-11-10T17:00:05;9.40;99.90
47765;DHT22;33529;49.242;8.670;2022-11-10T17:03:14;9.30;99.90
47765;DHT22;33529;49.242;8.670;2022-11-10T17:06:00;9.20;99.90
47765;DHT22;33529;49.242;8.670;2022-11-10T17:08:47;9.30;99.90
47765;DHT22;33529;49.242;8.670;2022-11-10T17:11:34;9.30;99.90
47765;DHT22;33529;49.242;8.670;2022-11-10T17:14:19;9.30;99.90
47765;DHT22;33529;49.242;8.670;2022-11-10T17:17:14;9.20;99.90
47765;DHT22;33529;49.242;8.670;2022-11-10T17:20:00;9.10;99.90
47765;DHT22;33529;49.242;8.670;2022-11-10T17:22:46;9.00;99.90
47765;DHT22;33529;49.242;8.670;2022-11-10T17:25:34;8.90;99.90
47765;DHT22;33529;49.242;8.670;2022-11-10T17:28:20;8.80;99.90
47765;DHT22;33529;49.242;8.670;2022-11-10T17:31:06;8.80;99.90
47765;DHT22;33529;49.242;8.670;2022-11-10T17:33:52;8.70;99.90
47765;DHT22;33529;49.242;8.670;2022-11-10T17:36:38;8.60;99.90
47765;DHT22;33529;49.242;8.670;2022-11-10T17:39:23;8.60;99.90
47765;DHT22;33529;49.242;8.670;2022-11-10T17:42:12;8.50;99.90
47765;DHT22;33529;49.242;8.670;2022-11-10T17:44:57;8.40;99.90
47765;DHT22;33529;49.242;8.670;2022-11-10T17:47:43;8.40;99.90
47765;DHT22;33529;49.242;8.670;2022-11-10T17:50:30;8.40;99.90
47765;DHT22;33529;49.242;8.670;2022-11-10T17:53:23;8.40;99.90
47765;DHT22;33529;49.242;8.670;2022-11-10T17:56:10;8.30;99.90
47765;DHT22;33529;49.242;8.670;2022-11-10T17:58:55;8.30;99.90
47765;DHT22;33529;49.242;8.670;2022-11-10T18:01:40;8.30;99.90
47765;DHT22;33529;49.242;8.670;2022-11-10T18:04:26;8.20;99.90
47765;DHT22;33529;49.242;8.670;2022-11-10T18:07:11;8.20;99.90
47765;DHT22;33529;49.242;8.670;2022-11-10T18:09:57;8.10;99.90
47765;DHT22;33529;49.242;8.670;2022-11-10T18:12:42;8.00;99.90
47765;DHT22;33529;49.242;8.670;2022-11-10T18:15:27;7.90;99.90
47765;DHT22;33529;49.242;8.670;2022-11-10T18:18:15;7.90;99.90
47765;DHT22;33529;49.242;8.670;2022-11-10T18:21:01;7.80;99.90
47765;DHT22;33529;49.242;8.670;2022-11-10T18:23:46;7.80;99.90
47765;DHT22;33529;49.242;8.670;2022-11-10T18:26:32;7.80;99.90
47765;DHT22;33529;49.242;8.670;2022-11-10T18:29:17;7.70;99.90
47765;DHT22;33529;49.242;8.670;2022-11-10T18:32:03;7.70;99.90
47765;DHT22;33529;49.242;8.670;2022-11-10T18:34:48;7.60;99.90
47765;DHT22;33529;49.242;8.670;2022-11-10T18:37:34;7.50;99.90
47765;DHT22;33529;49.242;8.670;2022-11-10T18:40:23;7.50;99.90
47765;DHT22;33529;49.242;8.670;2022-11-10T18:43:09;7.30;99.90
47765;DHT22;33529;49.242;8.670;2022-11-10T18:45:54;7.40;99.90
47765;DHT22;33529;49.242;8.670;2022-11-10T18:48:39;7.30;99.90
47765;DHT22;33529;49.242;8.670;2022-11-10T18:51:25;7.30;99.90
47765;DHT22;33529;49.242;8.670;2022-11-10T18:54:10;7.20;99.90
47765;DHT22;33529;49.242;8.670;2022-11-10T18:56:57;7.30;99.90
47765;DHT22;33529;49.242;8.670;2022-11-10T18:59:42;7.20;99.90
47765;DHT22;33529;49.242;8.670;2022-11-10T19:02:28;7.30;99.90
47765;DHT22;33529;49.242;8.670;2022-11-10T19:05:13;7.20;99.90
47765;DHT22;33529;49.242;8.670;2022-11-10T19:07:59;7.10;99.90
47765;DHT22;33529;49.242;8.670;2022-11-10T19:10:44;7.20;99.90
47765;DHT22;33529;49.242;8.670;2022-11-10T19:13:29;7.20;99.90
47765;DHT22;33529;49.242;8.670;2022-11-10T19:16:17;7.20;99.90
47765;DHT22;33529;49.242;8.670;2022-11-10T19:19:02;7.20;99.90
47765;DHT22;33529;49.242;8.670;2022-11-10T19:21:48;7.10;99.90
47765;DHT22;33529;49.242;8.670;2022-11-10T19:24:33;7.10;99.90
47765;DHT22;33529;49.242;8.670;2022-11-10T19:27:40;7.10;99.90